createdAt,value
2022-09-15T00:01:28.455Z,10.80
2022-09-15T00:03:58.020Z,10.80
2022-09-15T00:06:26.332Z,10.80
2022-09-15T00:08:55.144Z,10.80
2022-09-15T00:11:25.780Z,10.80
2022-09-15T00:13:55.065Z,10.70
2022-09-15T00:16:25.850Z,10.80
2022-09-15T00:18:54.193Z,10.70
2022-09-15T00:21:25.782Z,10.70
2022-09-15T00:23:54.536Z,10.60
2022-09-15T00:26:24.760Z,10.60
2022-09-15T00:28:53.228Z,10.50
2022-09-15T00:31:23.717Z,10.50
2022-09-15T00:33:54.028Z,10.50
2022-09-15T00:36:25.259Z,10.50
2022-09-15T00:38:53.512Z,10.40
2022-09-15T00:41:24.055Z,10.40
2022-09-15T00:43:57.460Z,10.40
2022-09-15T00:46:28.584Z,10.30
2022-09-15T00:49:02.999Z,10.30
2022-09-15T00:51:38.133Z,10.30
2022-09-15T00:54:09.838Z,10.20
2022-09-15T00:56:40.947Z,10.20
2022-09-15T00:59:13.417Z,10.20
2022-09-15T01:01:43.473Z,10.20
2022-09-15T01:04:12.628Z,10.20
2022-09-15T01:06:49.207Z,10.20
2022-09-15T01:09:22.279Z,10.20
2022-09-15T01:11:51.117Z,10.20
2022-09-15T01:14:19.233Z,10.20
2022-09-15T01:16:56.489Z,10.20
2022-09-15T01:19:55.964Z,10.20
2022-09-15T01:22:37.079Z,10.30
2022-09-15T01:25:10.218Z,10.30
2022-09-15T01:28:07.477Z,10.20
2022-09-15T01:30:38.565Z,10.20
2022-09-15T01:33:25.745Z,10.30
2022-09-15T01:36:01.756Z,10.30
2022-09-15T01:38:47.531Z,10.30
2022-09-15T01:41:18.972Z,10.40
2022-09-15T01:43:52.943Z,10.40
2022-09-15T01:46:25.360Z,10.40
2022-09-15T01:48:56.986Z,10.40
2022-09-15T01:51:26.797Z,10.30
2022-09-15T01:53:56.817Z,10.30
2022-09-15T01:56:25.139Z,10.30
2022-09-15T01:58:53.421Z,10.30
2022-09-15T02:01:28.380Z,10.40
2022-09-15T02:04:01.187Z,10.40
2022-09-15T02:06:37.950Z,10.40
2022-09-15T02:09:14.016Z,10.40
2022-09-15T02:11:53.464Z,10.50
2022-09-15T02:14:35.342Z,10.50
2022-09-15T02:17:05.486Z,10.50
2022-09-15T02:19:36.998Z,10.50
2022-09-15T02:22:11.366Z,10.50
2022-09-15T02:24:46.134Z,10.50
2022-09-15T02:27:18.403Z,10.60
2022-09-15T02:29:50.099Z,10.50
2022-09-15T02:32:23.401Z,10.50
2022-09-15T02:34:54.985Z,10.50
2022-09-15T02:37:26.774Z,10.50
2022-09-15T02:39:58.082Z,10.50
2022-09-15T02:42:28.722Z,10.40
2022-09-15T02:44:56.977Z,10.40
2022-09-15T02:47:28.306Z,10.40
2022-09-15T02:49:57.210Z,10.40
2022-09-15T02:52:26.240Z,10.40
2022-09-15T02:54:54.768Z,10.40
2022-09-15T02:57:24.404Z,10.40
2022-09-15T03:00:09.910Z,10.40
2022-09-15T03:02:40.062Z,10.40
2022-09-15T03:05:09.658Z,10.40
2022-09-15T03:07:38.551Z,10.50
2022-09-15T03:10:08.405Z,10.40
2022-09-15T03:12:39.390Z,10.40
2022-09-15T03:15:11.778Z,10.40
2022-09-15T03:17:42.849Z,10.40
2022-09-15T03:20:13.206Z,10.30
2022-09-15T03:22:41.356Z,10.40
2022-09-15T03:25:10.715Z,10.40
2022-09-15T03:27:39.947Z,10.40
2022-09-15T03:30:09.421Z,10.40
2022-09-15T03:32:37.614Z,10.40
2022-09-15T03:35:08.254Z,10.40
2022-09-15T03:37:37.302Z,10.30
2022-09-15T03:40:06.336Z,10.30
2022-09-15T03:42:34.882Z,10.30
2022-09-15T03:45:03.753Z,10.30
2022-09-15T03:47:33.357Z,10.30
2022-09-15T03:50:01.932Z,10.30
2022-09-15T03:52:33.425Z,10.30
2022-09-15T03:55:01.888Z,10.30
2022-09-15T03:57:30.702Z,10.30
2022-09-15T03:59:58.785Z,10.30
2022-09-15T04:02:27.061Z,10.30
2022-09-15T04:04:55.711Z,10.30
2022-09-15T04:07:23.841Z,10.20
2022-09-15T04:09:53.529Z,10.30
2022-09-15T04:12:21.786Z,10.30
2022-09-15T04:14:49.892Z,10.30
2022-09-15T04:17:18.125Z,10.30
2022-09-15T04:19:46.281Z,10.30
2022-09-15T04:22:17.830Z,10.30
2022-09-15T04:24:48.205Z,10.40
2022-09-15T04:27:18.286Z,10.40
2022-09-15T04:29:46.457Z,10.40
2022-09-15T04:32:14.881Z,10.40
2022-09-15T04:34:42.945Z,10.40
2022-09-15T04:37:11.558Z,10.40
2022-09-15T04:39:39.949Z,10.40
2022-09-15T04:42:08.190Z,10.40
2022-09-15T04:44:37.655Z,10.50
2022-09-15T04:47:07.327Z,10.40
2022-09-15T04:49:35.594Z,10.40
2022-09-15T04:52:07.742Z,10.40
2022-09-15T04:54:37.923Z,10.40
2022-09-15T04:57:06.483Z,10.40
2022-09-15T04:59:34.719Z,10.40
2022-09-15T05:02:05.091Z,10.40
2022-09-15T05:04:33.619Z,10.40
2022-09-15T05:07:01.742Z,10.40
2022-09-15T05:09:31.422Z,10.40
2022-09-15T05:11:59.519Z,10.40
2022-09-15T05:14:27.638Z,10.40
2022-09-15T05:16:56.214Z,10.40
2022-09-15T05:19:25.705Z,10.40
2022-09-15T05:21:53.849Z,10.40
2022-09-15T05:24:22.179Z,10.40
2022-09-15T05:26:50.294Z,10.40
2022-09-15T05:29:18.337Z,10.40
2022-09-15T05:31:46.819Z,10.40
2022-09-15T05:34:15.393Z,10.50
2022-09-15T05:36:44.863Z,10.50
2022-09-15T05:39:13.077Z,10.50
2022-09-15T05:41:41.344Z,10.60
2022-09-15T05:44:12.338Z,10.50
2022-09-15T05:46:40.805Z,10.60
2022-09-15T05:49:09.165Z,10.60
2022-09-15T05:51:37.777Z,10.60
2022-09-15T05:54:07.889Z,10.60
2022-09-15T05:56:36.017Z,10.70
2022-09-15T05:59:04.142Z,10.70
2022-09-15T06:01:32.908Z,10.70
2022-09-15T06:04:01.158Z,10.80
2022-09-15T06:06:29.290Z,10.80
2022-09-15T06:08:59.551Z,10.80
2022-09-15T06:11:31.084Z,10.90
2022-09-15T06:14:01.733Z,11.00
2022-09-15T06:16:32.989Z,11.00
2022-09-15T06:19:02.107Z,11.00
2022-09-15T06:21:32.036Z,11.00
2022-09-15T06:24:02.001Z,11.10
2022-09-15T06:26:32.225Z,11.10
2022-09-15T06:29:02.150Z,11.10
2022-09-15T06:31:32.952Z,11.20
2022-09-15T06:34:02.871Z,11.20
2022-09-15T06:36:32.306Z,11.30
2022-09-15T06:39:00.678Z,11.30
2022-09-15T06:41:42.613Z,11.40
2022-09-15T06:44:19.574Z,11.40
2022-09-15T06:46:47.763Z,11.50
2022-09-15T06:49:16.075Z,11.60
2022-09-15T06:51:44.515Z,11.80
2022-09-15T06:54:13.168Z,11.80
2022-09-15T06:56:41.261Z,11.90
2022-09-15T06:59:12.017Z,12.00
2022-09-15T07:01:42.267Z,12.10
2022-09-15T07:04:11.171Z,12.10
2022-09-15T07:06:40.699Z,12.30
2022-09-15T07:09:09.436Z,12.30
2022-09-15T07:11:37.691Z,12.30
2022-09-15T07:14:05.859Z,12.30
2022-09-15T07:16:34.407Z,12.30
2022-09-15T07:19:05.972Z,12.40
2022-09-15T07:21:35.671Z,12.60
2022-09-15T07:24:07.215Z,12.70
2022-09-15T07:26:36.402Z,12.70
2022-09-15T07:29:06.552Z,12.80
2022-09-15T07:31:37.440Z,12.80
2022-09-15T07:34:07.691Z,12.80
2022-09-15T07:36:36.158Z,12.80
2022-09-15T07:39:06.042Z,12.80
2022-09-15T07:41:34.278Z,12.90
2022-09-15T07:44:03.106Z,12.90
2022-09-15T07:46:32.756Z,13.00
2022-09-15T07:49:03.087Z,13.00
2022-09-15T07:51:32.909Z,13.20
2022-09-15T07:54:01.923Z,13.40
2022-09-15T07:56:30.401Z,13.50
2022-09-15T07:58:59.506Z,13.50
2022-09-15T08:01:28.190Z,13.60
2022-09-15T08:03:56.339Z,13.90
2022-09-15T08:06:26.584Z,14.10
2022-09-15T08:09:00.782Z,14.40
2022-09-15T08:11:29.559Z,14.90
2022-09-15T08:13:58.132Z,15.50
2022-09-15T08:16:26.434Z,15.90
2022-09-15T08:18:55.972Z,16.70
2022-09-15T08:21:24.505Z,16.80
2022-09-15T08:23:53.774Z,16.80
2022-09-15T08:26:24.073Z,16.40
2022-09-15T08:28:52.835Z,15.90
2022-09-15T08:31:21.358Z,15.50
2022-09-15T08:33:51.312Z,15.00
2022-09-15T08:36:19.890Z,14.80
2022-09-15T08:38:48.525Z,14.60
2022-09-15T08:41:21.308Z,14.60
2022-09-15T08:43:57.110Z,14.50
2022-09-15T08:46:30.180Z,14.50
2022-09-15T08:49:06.333Z,14.50
2022-09-15T08:51:43.574Z,14.50
2022-09-15T08:54:17.483Z,14.40
2022-09-15T08:56:46.457Z,14.30
2022-09-15T08:59:20.380Z,14.20
2022-09-15T09:02:04.431Z,14.20
2022-09-15T09:04:52.377Z,14.40
2022-09-15T09:07:34.430Z,14.70
2022-09-15T09:10:08.122Z,14.80
2022-09-15T09:12:51.715Z,14.70
2022-09-15T09:15:33.005Z,14.70
2022-09-15T09:18:18.864Z,15.00
2022-09-15T09:20:56.562Z,15.00
2022-09-15T09:23:28.734Z,15.10
2022-09-15T09:25:58.726Z,15.00
2022-09-15T09:28:32.584Z,14.90
2022-09-15T09:31:08.214Z,14.90
2022-09-15T09:33:47.820Z,14.80
2022-09-15T09:36:16.509Z,14.90
2022-09-15T09:38:48.052Z,14.90
2022-09-15T09:41:18.281Z,15.00
2022-09-15T09:43:48.510Z,15.00
2022-09-15T09:46:20.074Z,14.70
2022-09-15T09:48:52.980Z,14.50
2022-09-15T09:51:32.997Z,14.50
2022-09-15T09:54:13.003Z,14.40
2022-09-15T09:56:41.336Z,14.00
2022-09-15T09:59:36.468Z,13.80
2022-09-15T10:02:23.340Z,13.80
2022-09-15T10:04:54.244Z,13.70
2022-09-15T10:07:25.641Z,13.60
2022-09-15T10:09:59.533Z,13.70
2022-09-15T10:12:32.140Z,13.90
2022-09-15T10:15:03.542Z,14.10
2022-09-15T10:17:44.702Z,14.10
2022-09-15T10:20:25.917Z,14.10
2022-09-15T10:23:02.873Z,14.00
2022-09-15T10:25:55.111Z,13.80
2022-09-15T10:28:25.881Z,13.80
2022-09-15T10:31:03.597Z,13.90
2022-09-15T10:33:35.516Z,14.00
2022-09-15T10:36:07.064Z,14.10
2022-09-15T10:38:42.997Z,14.00
2022-09-15T10:41:25.208Z,14.00
2022-09-15T10:44:18.758Z,13.90
2022-09-15T10:46:56.591Z,13.90
2022-09-15T10:49:42.446Z,13.80
2022-09-15T10:52:20.728Z,13.90
2022-09-15T10:55:08.693Z,13.90
2022-09-15T10:58:01.908Z,13.80
2022-09-15T11:00:37.997Z,13.70
2022-09-15T11:03:33.416Z,13.60
2022-09-15T11:06:16.301Z,13.60
2022-09-15T11:08:57.498Z,13.40
2022-09-15T11:11:32.990Z,13.40
2022-09-15T11:14:16.750Z,13.30
2022-09-15T11:16:56.510Z,13.20
2022-09-15T11:19:39.619Z,13.20
2022-09-15T11:22:15.679Z,13.20
2022-09-15T11:24:47.306Z,13.30
2022-09-15T11:27:21.131Z,13.50
2022-09-15T11:30:06.766Z,13.60
2022-09-15T11:32:45.023Z,13.90
2022-09-15T11:35:43.846Z,14.00
2022-09-15T11:38:27.665Z,14.00
2022-09-15T11:41:00.551Z,13.90
2022-09-15T11:43:35.497Z,13.70
2022-09-15T11:46:11.274Z,13.60
2022-09-15T11:48:43.557Z,13.60
2022-09-15T11:51:16.401Z,13.60
2022-09-15T11:53:52.093Z,13.60
2022-09-15T11:56:25.646Z,13.70
2022-09-15T11:59:05.740Z,14.00
2022-09-15T12:01:41.552Z,14.20
2022-09-15T12:04:14.158Z,14.20
2022-09-15T12:06:48.963Z,14.10
2022-09-15T12:09:20.766Z,13.90
2022-09-15T12:11:51.412Z,13.80
2022-09-15T12:14:28.545Z,13.80
2022-09-15T12:16:58.114Z,13.70
2022-09-15T12:19:43.146Z,13.80
2022-09-15T12:22:16.804Z,13.90
2022-09-15T12:24:57.796Z,14.00
2022-09-15T12:27:28.677Z,14.10
2022-09-15T12:29:58.312Z,14.10
2022-09-15T12:32:28.857Z,14.10
2022-09-15T12:35:10.114Z,14.00
2022-09-15T12:37:44.160Z,13.90
2022-09-15T12:40:36.397Z,13.80
2022-09-15T12:43:17.150Z,13.60
2022-09-15T12:45:56.096Z,13.70
2022-09-15T12:48:28.284Z,13.60
2022-09-15T12:50:59.926Z,13.60
2022-09-15T12:53:30.071Z,13.50
2022-09-15T12:56:05.441Z,13.50
2022-09-15T12:58:37.663Z,13.40
2022-09-15T13:01:42.239Z,13.50
2022-09-15T13:04:41.971Z,13.50
2022-09-15T13:07:46.916Z,13.40
2022-09-15T13:10:45.204Z,13.30
2022-09-15T13:13:32.662Z,13.30
2022-09-15T13:16:03.486Z,13.30
2022-09-15T13:18:33.379Z,13.40
2022-09-15T13:21:08.233Z,13.60
2022-09-15T13:23:42.368Z,13.70
2022-09-15T13:26:17.329Z,13.80
2022-09-15T13:28:50.490Z,13.80
2022-09-15T13:31:32.984Z,13.70
2022-09-15T13:40:52.678Z,13.70
2022-09-15T13:43:57.399Z,13.70
2022-09-15T13:46:39.509Z,13.70
2022-09-15T13:49:36.112Z,13.60
2022-09-15T13:52:18.274Z,13.70
2022-09-15T13:55:11.314Z,13.80
2022-09-15T14:00:34.978Z,14.30
2022-09-15T14:03:07.081Z,14.60
2022-09-15T14:05:37.020Z,14.80
2022-09-15T14:08:09.115Z,14.90
2022-09-15T14:10:45.474Z,14.90
2022-09-15T14:13:17.461Z,14.80
2022-09-15T14:16:03.367Z,14.70
2022-09-15T14:18:41.695Z,14.50
2022-09-15T14:21:17.734Z,14.30
2022-09-15T14:23:48.242Z,14.20
2022-09-15T14:26:18.638Z,14.10
2022-09-15T14:28:51.350Z,14.00
2022-09-15T14:31:29.081Z,14.00
2022-09-15T14:33:57.659Z,13.90
2022-09-15T14:36:29.675Z,13.70
2022-09-15T14:39:08.799Z,13.60
2022-09-15T14:41:37.580Z,13.60
2022-09-15T14:47:19.885Z,13.30
2022-09-15T14:49:48.800Z,13.10
2022-09-15T14:52:25.624Z,13.00
2022-09-15T14:54:59.311Z,12.80
2022-09-15T14:57:31.491Z,12.70
2022-09-15T15:00:03.924Z,12.80
2022-09-15T15:02:49.807Z,12.80
2022-09-15T15:05:25.598Z,12.90
2022-09-15T15:07:55.389Z,13.00
2022-09-15T15:10:26.731Z,13.00
2022-09-15T15:12:57.558Z,13.00
2022-09-15T15:15:26.059Z,12.90
2022-09-15T15:17:56.318Z,12.90
2022-09-15T15:20:25.804Z,12.90
2022-09-15T15:23:15.614Z,12.80
2022-09-15T15:25:44.375Z,12.90
2022-09-15T15:28:31.963Z,12.90
2022-09-15T15:31:25.870Z,12.90
2022-09-15T15:33:59.640Z,12.90
2022-09-15T15:36:29.699Z,12.90
2022-09-15T15:38:59.883Z,12.90
2022-09-15T15:41:30.818Z,12.90
2022-09-15T15:44:03.245Z,12.90
2022-09-15T15:46:53.178Z,12.90
2022-09-15T15:49:27.431Z,12.90
2022-09-15T15:51:56.385Z,12.90
2022-09-15T15:54:25.334Z,13.00
2022-09-15T15:56:54.020Z,13.00
2022-09-15T15:59:22.496Z,13.10
2022-09-15T16:01:53.086Z,13.10
2022-09-15T16:04:23.094Z,13.10
2022-09-15T16:06:53.033Z,13.10
2022-09-15T16:09:21.894Z,13.00
2022-09-15T16:11:50.805Z,13.00
2022-09-15T16:14:19.123Z,13.00
2022-09-15T16:16:47.233Z,12.90
2022-09-15T16:19:15.671Z,12.90
2022-09-15T16:21:45.877Z,12.80
2022-09-15T16:24:18.130Z,12.80
2022-09-15T16:26:47.839Z,12.80
2022-09-15T16:29:18.769Z,12.80
2022-09-15T16:31:47.767Z,12.80
2022-09-15T16:34:18.187Z,12.70
2022-09-15T16:36:48.058Z,12.70
2022-09-15T16:39:16.598Z,12.80
2022-09-15T16:41:44.737Z,12.70
2022-09-15T16:44:19.799Z,12.70
2022-09-15T16:46:48.012Z,12.70
2022-09-15T16:49:16.333Z,12.80
2022-09-15T16:51:44.748Z,12.80
2022-09-15T16:54:17.802Z,12.80
2022-09-15T16:56:46.414Z,12.70
2022-09-15T16:59:14.886Z,12.70
2022-09-15T17:01:43.071Z,12.70
2022-09-15T17:04:14.942Z,12.70
2022-09-15T17:06:43.126Z,12.60
2022-09-15T17:09:11.236Z,12.60
2022-09-15T17:11:41.331Z,12.60
2022-09-15T17:14:14.397Z,12.60
2022-09-15T17:16:42.936Z,12.60
2022-09-15T17:19:11.218Z,12.60
2022-09-15T17:21:39.308Z,12.50
2022-09-15T17:24:09.839Z,12.50
2022-09-15T17:26:37.976Z,12.50
2022-09-15T17:29:07.541Z,12.50
2022-09-15T17:31:35.971Z,12.50
2022-09-15T17:34:04.111Z,12.50
2022-09-15T17:36:32.254Z,12.50
2022-09-15T17:39:00.789Z,12.50
2022-09-15T17:41:28.883Z,12.50
2022-09-15T17:43:56.996Z,12.40
2022-09-15T17:46:26.721Z,12.50
2022-09-15T17:48:54.921Z,12.40
2022-09-15T17:51:23.349Z,12.40
2022-09-15T17:53:51.980Z,12.40
2022-09-15T17:56:20.152Z,12.40
2022-09-15T17:58:48.271Z,12.40
2022-09-15T18:01:17.252Z,12.40
2022-09-15T18:03:47.009Z,12.40
2022-09-15T18:06:15.202Z,12.40
2022-09-15T18:08:43.941Z,12.40
2022-09-15T18:11:15.615Z,12.40
2022-09-15T18:13:44.057Z,12.40
2022-09-15T18:16:14.657Z,12.40
2022-09-15T18:18:43.078Z,12.40
2022-09-15T18:21:24.744Z,12.40
2022-09-15T18:23:52.857Z,12.40
2022-09-15T18:26:23.962Z,12.40
2022-09-15T18:28:55.631Z,12.40
2022-09-15T18:31:23.794Z,12.40
2022-09-15T18:33:52.332Z,12.40
2022-09-15T18:36:22.222Z,12.40
2022-09-15T18:38:50.402Z,12.40
2022-09-15T18:41:18.917Z,12.40
2022-09-15T18:43:49.316Z,12.40
2022-09-15T18:46:18.942Z,12.40
2022-09-15T18:48:47.134Z,12.40
2022-09-15T18:51:24.246Z,12.40
2022-09-15T18:53:59.428Z,12.40
2022-09-15T18:56:27.692Z,12.30
2022-09-15T18:58:56.202Z,12.30
2022-09-15T19:01:25.238Z,12.20
2022-09-15T19:03:54.238Z,12.20
2022-09-15T19:06:22.503Z,12.10
2022-09-15T19:08:51.012Z,12.00
2022-09-15T19:11:20.896Z,12.00
2022-09-15T19:13:48.990Z,12.00
2022-09-15T19:16:20.190Z,11.90
2022-09-15T19:18:51.284Z,11.90
2022-09-15T19:21:23.942Z,11.90
2022-09-15T19:23:58.242Z,11.80
2022-09-15T19:26:29.448Z,11.80
2022-09-15T19:28:58.455Z,11.80
2022-09-15T19:31:27.859Z,11.90
2022-09-15T19:33:56.029Z,11.90
2022-09-15T19:36:28.746Z,11.90
2022-09-15T19:38:57.867Z,11.90
2022-09-15T19:41:27.880Z,11.90
2022-09-15T19:43:56.034Z,11.90
2022-09-15T19:46:26.912Z,11.90
2022-09-15T19:48:55.652Z,11.90
2022-09-15T19:51:24.673Z,11.90
2022-09-15T19:53:55.387Z,11.80
2022-09-15T19:56:26.272Z,11.80
2022-09-15T19:58:57.517Z,11.80
2022-09-15T20:01:27.375Z,11.70
2022-09-15T20:03:56.979Z,11.70
2022-09-15T20:06:30.193Z,11.70
2022-09-15T20:09:00.409Z,11.70
2022-09-15T20:11:30.045Z,11.70
2022-09-15T20:13:59.944Z,11.70
2022-09-15T20:16:28.666Z,11.60
2022-09-15T20:18:57.645Z,11.60
2022-09-15T20:21:48.683Z,11.60
2022-09-15T20:24:17.157Z,11.70
2022-09-15T20:26:45.670Z,11.70
2022-09-15T20:29:15.296Z,11.70
2022-09-15T20:31:43.882Z,11.70
2022-09-15T20:34:12.315Z,11.70
2022-09-15T20:36:40.884Z,11.60
2022-09-15T20:39:13.294Z,11.50
2022-09-15T20:41:45.010Z,11.50
2022-09-15T20:44:15.454Z,11.50
2022-09-15T20:46:43.671Z,11.40
2022-09-15T20:49:12.202Z,11.40
2022-09-15T20:51:40.634Z,11.40
2022-09-15T20:54:09.069Z,11.40
2022-09-15T20:56:37.430Z,11.40
2022-09-15T20:59:10.431Z,11.40
2022-09-15T21:01:41.019Z,11.40
2022-09-15T21:04:11.504Z,11.40
2022-09-15T21:06:40.044Z,11.40
2022-09-15T21:09:09.336Z,11.40
2022-09-15T21:11:38.098Z,11.40
2022-09-15T21:14:06.539Z,11.40
2022-09-15T21:16:34.939Z,11.40
2022-09-15T21:19:05.377Z,11.40
2022-09-15T21:21:35.290Z,11.30
2022-09-15T21:24:06.240Z,11.30
2022-09-15T21:26:56.244Z,11.30
2022-09-15T21:29:24.841Z,11.40
2022-09-15T21:31:53.166Z,11.40
2022-09-15T21:34:22.846Z,11.40
2022-09-15T21:36:51.932Z,11.40
2022-09-15T21:39:20.519Z,11.40
2022-09-15T21:41:48.707Z,11.50
2022-09-15T21:44:17.242Z,11.40
2022-09-15T21:46:47.059Z,11.40
2022-09-15T21:49:15.260Z,11.40
2022-09-15T21:51:44.973Z,11.40
2022-09-15T21:54:13.845Z,11.40
2022-09-15T21:56:42.163Z,11.40
2022-09-15T21:59:12.401Z,11.30
2022-09-15T22:01:41.627Z,11.30
2022-09-15T22:04:10.842Z,11.30
2022-09-15T22:06:41.426Z,11.40
2022-09-15T22:09:14.636Z,11.40
2022-09-15T22:11:43.595Z,11.40
2022-09-15T22:14:13.163Z,11.40
2022-09-15T22:16:43.051Z,11.40
2022-09-15T22:19:13.090Z,11.40
2022-09-15T22:21:42.624Z,11.40
2022-09-15T22:24:14.259Z,11.40
2022-09-15T22:26:43.676Z,11.40
2022-09-15T22:29:11.882Z,11.40
2022-09-15T22:31:40.943Z,11.40
2022-09-15T22:34:09.282Z,11.40
2022-09-15T22:36:37.390Z,11.40
2022-09-15T22:39:06.195Z,11.40
2022-09-15T22:41:38.056Z,11.40
2022-09-15T22:44:07.318Z,11.40
2022-09-15T22:46:36.020Z,11.40
2022-09-15T22:49:04.611Z,11.40
2022-09-15T22:51:33.087Z,11.40
2022-09-15T22:54:03.458Z,11.40
2022-09-15T22:56:31.735Z,11.40
2022-09-15T22:59:01.603Z,11.40
2022-09-15T23:01:31.191Z,11.40
2022-09-15T23:04:00.904Z,11.40
2022-09-15T23:06:31.985Z,11.50
2022-09-15T23:09:02.170Z,11.40
2022-09-15T23:11:32.663Z,11.50
2022-09-15T23:14:02.884Z,11.50
2022-09-15T23:16:32.377Z,11.50
2022-09-15T23:19:01.145Z,11.50
2022-09-15T23:21:29.715Z,11.50
2022-09-15T23:23:59.262Z,11.50
2022-09-15T23:26:28.099Z,11.50
2022-09-15T23:28:56.911Z,11.40
2022-09-15T23:31:26.479Z,11.40
2022-09-15T23:33:55.145Z,11.40
2022-09-15T23:36:23.290Z,11.40
2022-09-15T23:38:51.573Z,11.30
2022-09-15T23:41:20.117Z,11.30
2022-09-15T23:43:48.612Z,11.20
2022-09-15T23:46:17.394Z,11.20
2022-09-15T23:48:47.339Z,11.20
2022-09-15T23:51:15.826Z,11.20
2022-09-15T23:53:43.985Z,11.20
2022-09-15T23:56:12.713Z,11.10
2022-09-15T23:58:41.762Z,11.20
